Time;durP1;ratioP1;P1;durP2;ratioP2;P2;SDS_P1;SDS_P2;PMS_P1;PMS_P2;Temp;Humidity;BMP_temperature;BMP_pressure;BME280_temperature;BME280_humidity;BME280_pressure;Samples;Min_cycle;Max_cycle;Signal;HPM_P1;HPM_P2
2023/03/08 00:01:36;;;;;;;24.00;14.37;;;;;;;;;;4397093;32;318781;-84
2023/03/08 00:04:03;;;;;;;26.07;15.20;;;;;;;;;;4393234;32;319619;-85
2023/03/08 00:06:30;;;;;;;30.50;18.60;;;;;;;;;;4412252;32;318846;-84
2023/03/08 00:09:01;;;;;;;58.50;31.20;;;;;;;;;;4395649;32;319294;-82
2023/03/08 00:11:29;;;;;;;51.77;30.77;;;;;;;;;;4397178;32;319373;-85
2023/03/08 00:13:56;;;;;;;49.67;26.80;;;;;;;;;;4385972;32;327463;-84
2023/03/08 00:16:24;;;;;;;43.40;26.63;;;;;;;;;;4395597;32;318500;-84
2023/03/08 00:18:51;;;;;;;39.93;24.67;;;;;;;;;;4387283;32;318547;-84
2023/03/08 00:21:18;;;;;;;38.70;24.07;;;;;;;;;;4395943;32;319728;-86
2023/03/08 00:23:46;;;;;;;33.43;19.30;;;;;;;;;;4387150;32;319371;-85
2023/03/08 00:26:14;;;;;;;20.90;12.90;;;;;;;;;;4395256;32;318691;-83
2023/03/08 00:28:42;;;;;;;24.67;14.73;;;;;;;;;;4397075;32;319245;-83
2023/03/08 00:31:11;;;;;;;24.20;15.00;;;;;;;;;;4385884;32;319182;-83
2023/03/08 00:33:38;;;;;;;22.67;12.27;;;;;;;;;;4397057;32;318647;-84
2023/03/08 00:36:06;;;;;;;17.70;11.80;;;;;;;;;;4388750;32;318585;-85
2023/03/08 00:38:35;;;;;;;22.30;12.00;;;;;;;;;;4399449;32;318582;-83
2023/03/08 00:41:02;;;;;;;21.17;10.97;;;;;;;;;;4388707;32;318465;-84
2023/03/08 00:43:31;;;;;;;19.27;12.50;;;;;;;;;;4399812;32;319477;-84
2023/03/08 00:45:58;;;;;;;16.30;10.73;;;;;;;;;;4387895;32;349721;-85
2023/03/08 00:48:25;;;;;;;19.77;10.53;;;;;;;;;;4392088;32;318675;-85
2023/03/08 00:50:52;;;;;;;18.40;9.77;;;;;;;;;;4390955;32;319157;-86
2023/03/08 00:53:19;;;;;;;14.57;8.83;;;;;;;;;;4398566;32;318498;-86
2023/03/08 00:55:51;;;;;;;13.57;8.20;;;;;;;;;;4388567;32;318522;-84
2023/03/08 00:58:18;;;;;;;17.03;8.10;;;;;;;;;;4398182;32;317549;-85
2023/03/08 01:00:47;;;;;;;17.77;8.87;;;;;;;;;;4397125;32;359467;-85
2023/03/08 01:03:14;;;;;;;14.10;9.20;;;;;;;;;;4385663;32;417029;-86
2023/03/08 01:05:42;;;;;;;12.40;8.13;;;;;;;;;;4413700;32;318094;-85
2023/03/08 01:08:09;;;;;;;17.23;10.37;;;;;;;;;;4402739;32;318061;-84
2023/03/08 01:10:36;;;;;;;15.87;9.47;;;;;;;;;;4398501;32;319408;-84
2023/03/08 01:13:05;;;;;;;17.50;10.70;;;;;;;;;;4389894;32;318021;-83
2023/03/08 01:15:35;;;;;;;19.47;11.80;;;;;;;;;;4399172;32;318531;-83
2023/03/08 01:18:03;;;;;;;26.70;12.57;;;;;;;;;;4387927;32;318782;-84
2023/03/08 01:20:30;;;;;;;19.50;13.60;;;;;;;;;;4399043;32;319638;-83
2023/03/08 01:22:57;;;;;;;31.00;17.00;;;;;;;;;;4387841;32;319061;-85
2023/03/08 01:25:23;;;;;;;24.33;15.70;;;;;;;;;;4397097;32;355498;-83
2023/03/08 01:27:50;;;;;;;17.70;13.93;;;;;;;;;;4389397;32;319444;-82
2023/03/08 01:30:17;;;;;;;21.93;14.10;;;;;;;;;;4398872;32;318784;-84
2023/03/08 01:32:44;;;;;;;22.77;14.77;;;;;;;;;;4399013;32;319651;-85
2023/03/08 01:35:12;;;;;;;24.10;14.57;;;;;;;;;;4384801;32;420200;-86
2023/03/08 01:37:39;;;;;;;26.70;14.00;;;;;;;;;;4386411;32;318672;-81
2023/03/08 01:40:07;;;;;;;33.47;18.60;;;;;;;;;;4386426;32;319242;-81
2023/03/08 01:42:34;;;;;;;44.00;22.67;;;;;;;;;;4398090;32;319846;-84
2023/03/08 01:45:03;;;;;;;63.63;33.73;;;;;;;;;;4387741;32;319751;-82
2023/03/08 01:47:32;;;;;;;50.03;28.37;;;;;;;;;;4398594;32;318728;-84
2023/03/08 01:50:03;;;;;;;57.47;31.07;;;;;;;;;;4390943;32;321081;-84
2023/03/08 01:52:35;;;;;;;54.73;27.80;;;;;;;;;;4398383;32;319050;-83
2023/03/08 01:55:05;;;;;;;45.57;23.57;;;;;;;;;;4387812;32;319331;-84
2023/03/08 01:57:37;;;;;;;41.60;22.03;;;;;;;;;;4399031;32;318535;-80
2023/03/08 02:00:08;;;;;;;32.20;20.07;;;;;;;;;;4387448;32;318905;-86
2023/03/08 02:02:41;;;;;;;42.27;21.33;;;;;;;;;;4398676;32;319637;-84
2023/03/08 02:05:09;;;;;;;31.07;20.40;;;;;;;;;;4392058;32;318561;-85
2023/03/08 02:07:38;;;;;;;32.53;20.03;;;;;;;;;;4407241;32;319531;-84
2023/03/08 02:10:05;;;;;;;29.77;17.57;;;;;;;;;;4388401;32;319314;-86
2023/03/08 02:12:32;;;;;;;31.70;19.87;;;;;;;;;;4394818;32;319282;-84
2023/03/08 02:15:00;;;;;;;34.90;20.37;;;;;;;;;;4374319;32;319446;-84
2023/03/08 02:17:27;;;;;;;36.93;19.30;;;;;;;;;;4391724;32;318674;-82
2023/03/08 02:19:57;;;;;;;39.87;21.10;;;;;;;;;;4380006;32;319386;-86
2023/03/08 02:22:25;;;;;;;48.53;23.30;;;;;;;;;;4383558;32;317667;-83
2023/03/08 02:25:01;;;;;;;40.33;22.60;;;;;;;;;;4374227;32;318267;-83
2023/03/08 02:27:28;;;;;;;40.40;22.53;;;;;;;;;;4384698;32;317814;-85
2023/03/08 02:29:55;;;;;;;39.37;23.70;;;;;;;;;;4377058;32;318374;-82
2023/03/08 02:32:22;;;;;;;43.10;23.07;;;;;;;;;;4391814;32;317857;-85
2023/03/08 02:34:48;;;;;;;43.80;22.40;;;;;;;;;;4381667;32;337404;-86
2023/03/08 02:37:15;;;;;;;54.20;27.90;;;;;;;;;;4379939;32;317719;-84
2023/03/08 02:39:42;;;;;;;51.17;27.27;;;;;;;;;;4390264;32;317637;-84
2023/03/08 02:42:10;;;;;;;48.83;27.57;;;;;;;;;;4371162;32;354828;-84
2023/03/08 02:44:37;;;;;;;45.60;25.10;;;;;;;;;;4381785;32;317839;-85
2023/03/08 02:47:04;;;;;;;40.97;21.50;;;;;;;;;;4373273;32;318424;-83
2023/03/08 02:49:30;;;;;;;34.87;19.63;;;;;;;;;;4382793;32;318348;-82
2023/03/08 02:51:57;;;;;;;28.97;17.60;;;;;;;;;;4381228;32;318499;-82
2023/03/08 02:54:24;;;;;;;32.17;18.40;;;;;;;;;;4396505;32;318317;-85
2023/03/08 02:56:50;;;;;;;27.90;16.93;;;;;;;;;;4388203;32;317801;-83
2023/03/08 02:59:19;;;;;;;32.80;18.63;;;;;;;;;;4396265;32;317680;-84
2023/03/08 03:01:46;;;;;;;35.73;20.70;;;;;;;;;;4387914;32;317624;-83
2023/03/08 03:04:12;;;;;;;34.07;20.53;;;;;;;;;;4404663;32;318376;-85
2023/03/08 03:06:39;;;;;;;38.57;20.83;;;;;;;;;;4412245;32;317596;-83
2023/03/08 03:09:07;;;;;;;38.77;23.73;;;;;;;;;;4388533;32;318192;-85
2023/03/08 03:11:34;;;;;;;41.37;24.60;;;;;;;;;;4381584;32;317796;-81
2023/03/08 03:14:01;;;;;;;53.97;31.03;;;;;;;;;;4371700;32;318718;-80
2023/03/08 03:16:29;;;;;;;69.73;37.00;;;;;;;;;;4381544;32;317555;-84
2023/03/08 03:18:57;;;;;;;83.73;42.97;;;;;;;;;;4372975;32;318385;-85
2023/03/08 03:21:24;;;;;;;66.13;36.87;;;;;;;;;;4382592;32;318366;-84
2023/03/08 03:23:51;;;;;;;62.60;34.70;;;;;;;;;;4372552;32;318961;-84
2023/03/08 03:26:20;;;;;;;63.90;35.17;;;;;;;;;;4382459;32;318367;-81
2023/03/08 03:28:47;;;;;;;57.30;34.67;;;;;;;;;;4365801;32;317627;-84
2023/03/08 03:31:16;;;;;;;64.07;33.20;;;;;;;;;;4382408;32;318272;-84
2023/03/08 03:33:45;;;;;;;60.43;33.63;;;;;;;;;;4381342;32;317652;-83
2023/03/08 03:36:14;;;;;;;62.23;33.70;;;;;;;;;;4368323;32;418451;-86
2023/03/08 03:38:41;;;;;;;62.20;33.40;;;;;;;;;;4381897;32;318649;-84
2023/03/08 03:41:10;;;;;;;59.63;32.87;;;;;;;;;;4370535;32;354525;-84
2023/03/08 03:43:37;;;;;;;55.33;31.90;;;;;;;;;;4382452;32;318322;-83
2023/03/08 03:46:07;;;;;;;51.77;30.30;;;;;;;;;;4372861;32;318008;-85
2023/03/08 03:48:35;;;;;;;50.07;30.77;;;;;;;;;;4381367;32;318334;-85
2023/03/08 03:51:05;;;;;;;52.97;27.70;;;;;;;;;;4380347;32;317669;-84
2023/03/08 03:53:34;;;;;;;52.13;29.33;;;;;;;;;;4381092;32;317642;-84
2023/03/08 03:56:03;;;;;;;52.10;29.27;;;;;;;;;;4379904;32;318293;-81
2023/03/08 03:58:30;;;;;;;47.93;27.33;;;;;;;;;;4398763;32;318443;-84
2023/03/08 04:00:57;;;;;;;45.23;22.43;;;;;;;;;;4386585;32;345412;-85
2023/03/08 04:03:23;;;;;;;26.70;18.77;;;;;;;;;;4399135;32;317777;-84
2023/03/08 04:05:50;;;;;;;28.83;17.30;;;;;;;;;;4386549;32;317706;-84
2023/03/08 04:08:19;;;;;;;29.47;16.67;;;;;;;;;;4382659;32;318221;-84
2023/03/08 04:10:45;;;;;;;26.87;17.17;;;;;;;;;;4388744;32;318347;-84
2023/03/08 04:13:12;;;;;;;29.77;17.13;;;;;;;;;;4400382;32;318239;-84
2023/03/08 04:15:39;;;;;;;33.93;19.50;;;;;;;;;;4398822;32;317703;-84
2023/03/08 04:18:06;;;;;;;83.00;41.40;;;;;;;;;;4389813;32;322844;-84
2023/03/08 04:20:32;;;;;;;61.87;33.07;;;;;;;;;;4399780;32;318307;-84
2023/03/08 04:22:59;;;;;;;53.47;28.47;;;;;;;;;;4389208;32;317620;-85
2023/03/08 04:25:27;;;;;;;44.53;26.07;;;;;;;;;;4399050;32;318354;-84
2023/03/08 04:27:54;;;;;;;41.80;23.83;;;;;;;;;;4389271;32;318342;-83
2023/03/08 04:30:21;;;;;;;51.20;30.53;;;;;;;;;;4400010;32;318654;-83
2023/03/08 04:32:47;;;;;;;59.50;32.10;;;;;;;;;;4390068;32;317572;-84
2023/03/08 04:35:14;;;;;;;77.27;37.80;;;;;;;;;;4399566;32;318284;-84
2023/03/08 04:37:44;;;;;;;62.27;35.73;;;;;;;;;;4398524;32;317854;-83
2023/03/08 04:40:13;;;;;;;64.00;33.90;;;;;;;;;;4386802;32;417305;-83
2023/03/08 04:42:41;;;;;;;76.63;38.53;;;;;;;;;;4399908;32;318206;-85
2023/03/08 04:45:08;;;;;;;64.57;38.13;;;;;;;;;;4389837;32;317603;-85
2023/03/08 04:47:35;;;;;;;113.03;62.77;;;;;;;;;;4399430;32;318660;-86
2023/03/08 04:50:02;;;;;;;100.80;57.67;;;;;;;;;;4385807;32;319153;-84
2023/03/08 04:52:29;;;;;;;100.53;56.67;;;;;;;;;;4399424;32;318686;-84
2023/03/08 04:54:55;;;;;;;92.33;53.17;;;;;;;;;;4389412;32;319173;-84
2023/03/08 04:57:22;;;;;;;83.13;48.93;;;;;;;;;;4398446;32;317972;-82
2023/03/08 04:59:50;;;;;;;84.40;52.37;;;;;;;;;;4387713;32;318359;-83
2023/03/08 05:02:17;;;;;;;86.43;46.73;;;;;;;;;;4398162;32;318666;-85
2023/03/08 05:04:44;;;;;;;73.13;44.97;;;;;;;;;;4409045;32;328598;-85
2023/03/08 05:07:11;;;;;;;62.57;37.27;;;;;;;;;;4401734;32;418464;-83
2023/03/08 05:09:38;;;;;;;75.60;43.03;;;;;;;;;;4403143;32;318052;-84
2023/03/08 05:12:05;;;;;;;67.27;38.83;;;;;;;;;;4389422;32;317726;-81
2023/03/08 05:14:31;;;;;;;69.77;38.27;;;;;;;;;;4402270;32;318261;-82
2023/03/08 05:17:00;;;;;;;69.40;39.93;;;;;;;;;;4389813;32;318099;-83
2023/03/08 05:19:27;;;;;;;81.60;38.90;;;;;;;;;;4398139;32;318366;-86
2023/03/08 05:21:54;;;;;;;60.43;37.03;;;;;;;;;;4388788;32;317602;-86
2023/03/08 05:24:24;;;;;;;72.10;35.17;;;;;;;;;;4398368;32;317972;-81
2023/03/08 05:26:51;;;;;;;63.60;38.37;;;;;;;;;;4389514;32;317888;-84
2023/03/08 05:29:17;;;;;;;68.33;38.23;;;;;;;;;;4401590;32;317725;-86
2023/03/08 05:31:45;;;;;;;70.53;34.77;;;;;;;;;;4405569;32;318477;-80
2023/03/08 05:34:13;;;;;;;76.90;35.27;;;;;;;;;;4392880;32;418562;-84
2023/03/08 05:36:41;;;;;;;71.10;35.67;;;;;;;;;;4397976;32;318193;-84
2023/03/08 05:39:08;;;;;;;63.40;33.60;;;;;;;;;;4387157;32;347044;-82
2023/03/08 05:41:34;;;;;;;53.00;31.00;;;;;;;;;;4398736;32;317625;-85
2023/03/08 05:44:01;;;;;;;51.70;29.83;;;;;;;;;;4388773;32;317795;-82
2023/03/08 05:46:28;;;;;;;46.43;30.30;;;;;;;;;;4405193;32;317967;-84
2023/03/08 05:48:55;;;;;;;45.40;27.70;;;;;;;;;;4392287;32;353647;-86
2023/03/08 05:51:23;;;;;;;54.47;31.83;;;;;;;;;;4393472;32;317796;-86
2023/03/08 05:53:50;;;;;;;68.60;32.47;;;;;;;;;;4389317;32;318562;-85
2023/03/08 05:56:18;;;;;;;61.77;33.07;;;;;;;;;;4399884;32;317484;-86
2023/03/08 05:58:45;;;;;;;87.53;45.00;;;;;;;;;;4400755;32;318310;-82
2023/03/08 06:01:15;;;;;;;99.23;56.87;;;;;;;;;;4384228;32;417484;-85
2023/03/08 06:03:43;;;;;;;91.30;50.00;;;;;;;;;;4400956;32;348618;-81
2023/03/08 06:06:11;;;;;;;80.73;49.10;;;;;;;;;;4402822;32;317946;-85
2023/03/08 06:08:41;;;;;;;75.87;45.80;;;;;;;;;;4409089;32;317643;-83
2023/03/08 06:11:10;;;;;;;82.90;49.40;;;;;;;;;;4387201;32;318146;-85
2023/03/08 06:13:37;;;;;;;75.63;45.17;;;;;;;;;;4397728;32;317552;-86
2023/03/08 06:16:05;;;;;;;66.57;40.80;;;;;;;;;;4392246;32;318035;-84
2023/03/08 06:18:32;;;;;;;63.67;38.80;;;;;;;;;;4397545;32;317889;-85
2023/03/08 06:21:00;;;;;;;73.90;42.00;;;;;;;;;;4387816;32;318751;-83
2023/03/08 06:23:28;;;;;;;74.77;42.97;;;;;;;;;;4396975;32;318263;-83
2023/03/08 06:25:57;;;;;;;79.10;42.47;;;;;;;;;;4385913;32;318380;-82
2023/03/08 06:28:25;;;;;;;87.90;47.63;;;;;;;;;;4398221;32;317808;-80
2023/03/08 06:30:52;;;;;;;64.83;40.87;;;;;;;;;;4383787;32;339352;-84
2023/03/08 06:33:20;;;;;;;81.03;46.67;;;;;;;;;;4395093;32;330147;-82
2023/03/08 06:35:57;;;;;;;118.20;66.40;;;;;;;;;;4386027;32;326788;-84
2023/03/08 06:38:24;;;;;;;139.40;73.77;;;;;;;;;;4395962;32;327372;-86
2023/03/08 06:40:51;;;;;;;109.33;62.03;;;;;;;;;;4386289;32;318844;-85
2023/03/08 06:43:20;;;;;;;77.27;48.93;;;;;;;;;;4394518;32;340624;-85
2023/03/08 06:45:47;;;;;;;73.87;45.50;;;;;;;;;;4384882;32;317669;-83
2023/03/08 06:48:15;;;;;;;64.83;36.10;;;;;;;;;;4398093;32;317643;-86
2023/03/08 06:50:42;;;;;;;48.77;28.60;;;;;;;;;;4397183;32;317683;-87
2023/03/08 06:53:09;;;;;;;39.10;22.90;;;;;;;;;;4386042;32;318193;-82
2023/03/08 06:55:36;;;;;;;29.70;21.33;;;;;;;;;;4382862;32;318033;-84
2023/03/08 06:58:05;;;;;;;39.07;25.07;;;;;;;;;;4372090;32;317823;-83
2023/03/08 07:00:34;;;;;;;37.00;23.90;;;;;;;;;;4381485;32;318242;-83
2023/03/08 07:03:02;;;;;;;24.27;15.17;;;;;;;;;;4372950;32;317760;-83
2023/03/08 07:05:29;;;;;;;23.20;15.37;;;;;;;;;;4411908;32;318148;-84
2023/03/08 07:07:56;;;;;;;24.70;16.17;;;;;;;;;;4402896;32;318152;-84
2023/03/08 07:10:23;;;;;;;30.20;15.60;;;;;;;;;;4397687;32;318291;-84
2023/03/08 07:12:50;;;;;;;27.27;15.73;;;;;;;;;;4386447;32;346605;-84
2023/03/08 07:15:19;;;;;;;33.73;17.80;;;;;;;;;;4396170;32;318033;-84
2023/03/08 07:17:49;;;;;;;56.97;31.23;;;;;;;;;;4387299;32;318462;-82
2023/03/08 07:20:17;;;;;;;34.70;21.50;;;;;;;;;;4396355;32;317576;-84
2023/03/08 07:22:45;;;;;;;25.27;17.30;;;;;;;;;;4397441;32;318376;-82
2023/03/08 07:25:12;;;;;;;42.57;24.13;;;;;;;;;;4369743;32;418829;-84
2023/03/08 07:27:39;;;;;;;59.93;38.40;;;;;;;;;;4382389;32;318286;-84
2023/03/08 07:30:08;;;;;;;25.93;16.67;;;;;;;;;;4372708;32;318504;-85
2023/03/08 07:32:35;;;;;;;50.43;30.43;;;;;;;;;;4382090;32;318225;-84
2023/03/08 07:35:03;;;;;;;33.33;21.20;;;;;;;;;;4379747;32;318176;-81
2023/03/08 07:37:30;;;;;;;28.23;16.47;;;;;;;;;;4395246;32;340260;-83
2023/03/08 07:39:57;;;;;;;32.43;15.03;;;;;;;;;;4385247;32;336173;-82
2023/03/08 07:42:24;;;;;;;26.00;15.30;;;;;;;;;;4397093;32;318130;-82
2023/03/08 07:44:50;;;;;;;21.77;14.80;;;;;;;;;;4388859;32;318240;-85
2023/03/08 07:47:19;;;;;;;26.33;16.40;;;;;;;;;;4399045;32;317861;-86
2023/03/08 07:49:47;;;;;;;29.70;17.03;;;;;;;;;;4398419;32;317634;-82
2023/03/08 07:52:15;;;;;;;33.87;21.50;;;;;;;;;;4371132;32;318143;-84
2023/03/08 07:54:43;;;;;;;44.00;24.83;;;;;;;;;;4384930;32;316747;-83
2023/03/08 07:57:13;;;;;;;41.83;27.70;;;;;;;;;;4371173;32;385862;-83
2023/03/08 07:59:42;;;;;;;47.07;28.70;;;;;;;;;;4384741;32;319415;-86
2023/03/08 08:02:12;;;;;;;47.83;28.90;;;;;;;;;;4377226;32;319060;-81
2023/03/08 08:04:39;;;;;;;52.67;30.87;;;;;;;;;;4387728;32;319294;-83
2023/03/08 08:07:06;;;;;;;33.23;21.00;;;;;;;;;;4374542;32;319577;-83
2023/03/08 08:09:36;;;;;;;28.27;17.07;;;;;;;;;;4384888;32;319289;-84
2023/03/08 08:12:03;;;;;;;29.37;16.63;;;;;;;;;;4375468;32;319308;-82
2023/03/08 08:14:30;;;;;;;30.00;18.93;;;;;;;;;;4381662;32;325245;-84
2023/03/08 08:16:57;;;;;;;31.20;19.47;;;;;;;;;;4374663;32;319537;-83
2023/03/08 08:19:24;;;;;;;27.30;15.40;;;;;;;;;;4377811;32;318640;-83
2023/03/08 08:21:51;;;;;;;29.40;18.33;;;;;;;;;;4375268;32;319073;-83
2023/03/08 08:24:17;;;;;;;40.33;23.53;;;;;;;;;;4384768;32;319445;-82
2023/03/08 08:26:46;;;;;;;39.33;22.63;;;;;;;;;;4383134;32;319230;-82
2023/03/08 08:29:13;;;;;;;33.47;20.30;;;;;;;;;;4370971;32;418335;-83
2023/03/08 08:31:40;;;;;;;29.67;18.03;;;;;;;;;;4382792;32;318655;-83
2023/03/08 08:34:07;;;;;;;31.80;19.97;;;;;;;;;;4372178;32;347424;-83
2023/03/08 08:36:35;;;;;;;33.93;19.13;;;;;;;;;;4384803;32;318712;-83
2023/03/08 08:39:02;;;;;;;25.70;16.03;;;;;;;;;;4375268;32;318714;-85
2023/03/08 08:41:31;;;;;;;33.30;20.93;;;;;;;;;;4392574;32;319229;-84
2023/03/08 08:44:00;;;;;;;52.43;28.27;;;;;;;;;;4379061;32;318794;-84
2023/03/08 08:46:28;;;;;;;25.07;15.13;;;;;;;;;;4379828;32;323611;-84
2023/03/08 08:48:55;;;;;;;23.23;12.77;;;;;;;;;;4359819;32;318920;-83
2023/03/08 08:51:22;;;;;;;29.50;15.10;;;;;;;;;;4379551;32;319588;-83
2023/03/08 08:53:49;;;;;;;21.97;12.20;;;;;;;;;;4378373;32;319654;-83
2023/03/08 08:56:17;;;;;;;34.67;16.50;;;;;;;;;;4389714;32;319431;-84
2023/03/08 08:58:46;;;;;;;24.53;13.73;;;;;;;;;;4383498;32;317105;-84
2023/03/08 09:01:18;;;;;;;15.87;10.80;;;;;;;;;;4370181;32;418039;-84
2023/03/08 09:03:46;;;;;;;12.83;9.33;;;;;;;;;;4383874;32;319541;-82
2023/03/08 09:06:15;;;;;;;14.63;9.40;;;;;;;;;;4374556;32;417264;-82
2023/03/08 09:08:42;;;;;;;17.33;10.57;;;;;;;;;;4387303;32;318061;-82
2023/03/08 09:11:10;;;;;;;19.03;10.23;;;;;;;;;;4375075;32;319538;-83
2023/03/08 09:13:40;;;;;;;14.13;8.33;;;;;;;;;;4385202;32;318722;-84
2023/03/08 09:16:16;;;;;;;11.50;6.70;;;;;;;;;;4368334;32;317837;-84
2023/03/08 09:18:45;;;;;;;10.03;6.77;;;;;;;;;;4384520;32;317913;-83
2023/03/08 09:21:14;;;;;;;11.90;6.37;;;;;;;;;;4365865;32;417764;-82
2023/03/08 09:23:43;;;;;;;14.07;7.00;;;;;;;;;;4398442;32;316820;-80
2023/03/08 09:26:11;;;;;;;12.53;6.70;;;;;;;;;;4390139;32;318007;-83
2023/03/08 09:28:38;;;;;;;13.33;4.47;;;;;;;;;;4404009;32;316143;-81
2023/03/08 09:31:11;;;;;;;8.97;4.93;;;;;;;;;;4391013;32;316709;-83
2023/03/08 09:33:38;;;;;;;8.70;4.03;;;;;;;;;;4397804;32;317093;-81
2023/03/08 09:36:07;;;;;;;8.10;4.13;;;;;;;;;;4384897;32;355326;-81
2023/03/08 09:38:34;;;;;;;10.27;4.90;;;;;;;;;;4396144;32;316735;-83
2023/03/08 09:41:12;;;;;;;6.23;4.50;;;;;;;;;;4395295;32;320437;-83
2023/03/08 09:43:45;;;;;;;11.67;6.20;;;;;;;;;;4398118;32;315278;-83
2023/03/08 09:46:15;;;;;;;12.30;5.37;;;;;;;;;;4384804;32;417147;-82
2023/03/08 09:48:47;;;;;;;11.43;6.70;;;;;;;;;;4392367;32;318296;-84
2023/03/08 09:51:19;;;;;;;11.67;6.20;;;;;;;;;;4381572;32;418500;-85
2023/03/08 09:53:50;;;;;;;15.83;8.27;;;;;;;;;;4383014;32;317612;-84
2023/03/08 09:56:23;;;;;;;11.97;6.27;;;;;;;;;;4384609;32;329693;-84
2023/03/08 09:58:54;;;;;;;11.17;6.10;;;;;;;;;;4372489;32;317999;-83
2023/03/08 10:01:34;;;;;;;12.00;5.90;;;;;;;;;;4381969;32;317932;-84
2023/03/08 10:04:25;;;;;;;8.60;5.73;;;;;;;;;;4373122;32;318678;-85
2023/03/08 10:07:10;;;;;;;7.27;4.83;;;;;;;;;;4395988;32;316448;-83
2023/03/08 10:09:40;;;;;;;24.73;16.53;;;;;;;;;;4381531;32;317292;-83
2023/03/08 10:12:16;;;;;;;15.00;7.53;;;;;;;;;;4373018;32;318417;-85
2023/03/08 10:14:51;;;;;;;5.47;4.13;;;;;;;;;;4381557;32;318114;-84
2023/03/08 10:17:21;;;;;;;9.37;4.20;;;;;;;;;;4370280;32;417023;-82
2023/03/08 10:19:55;;;;;;;8.67;4.43;;;;;;;;;;4372524;32;317589;-83
2023/03/08 10:22:30;;;;;;;11.70;5.13;;;;;;;;;;4382332;32;316593;-85
2023/03/08 10:25:01;;;;;;;6.77;4.87;;;;;;;;;;4371246;32;318636;-85
2023/03/08 10:27:33;;;;;;;7.97;3.50;;;;;;;;;;4382505;32;317116;-84
2023/03/08 10:30:02;;;;;;;5.67;3.60;;;;;;;;;;4372354;32;317286;-83
2023/03/08 10:32:29;;;;;;;5.10;3.63;;;;;;;;;;4382331;32;317405;-83
2023/03/08 10:35:01;;;;;;;12.27;5.60;;;;;;;;;;4371787;32;316803;-84
2023/03/08 10:37:33;;;;;;;7.03;3.77;;;;;;;;;;4382227;32;318287;-84
2023/03/08 10:40:04;;;;;;;11.80;7.03;;;;;;;;;;4354035;32;316444;-86
2023/03/08 10:42:34;;;;;;;13.40;7.57;;;;;;;;;;4367506;32;317743;-81
2023/03/08 10:45:04;;;;;;;11.80;5.20;;;;;;;;;;4356587;32;318246;-84
2023/03/08 10:47:33;;;;;;;10.47;6.30;;;;;;;;;;4366539;32;318516;-84
2023/03/08 10:50:15;;;;;;;8.37;4.27;;;;;;;;;;4358983;32;318420;-83
2023/03/08 10:52:45;;;;;;;9.57;4.20;;;;;;;;;;4378882;32;316386;-83
2023/03/08 10:55:15;;;;;;;10.23;3.73;;;;;;;;;;4368968;32;416544;-84
2023/03/08 10:57:48;;;;;;;7.83;4.63;;;;;;;;;;4388869;32;318640;-82
2023/03/08 11:00:32;;;;;;;9.97;6.43;;;;;;;;;;4373425;32;417469;-82
2023/03/08 11:03:16;;;;;;;8.00;5.23;;;;;;;;;;4371843;32;347979;-86
2023/03/08 11:05:53;;;;;;;10.00;5.47;;;;;;;;;;4368447;32;317264;-85
2023/03/08 11:08:23;;;;;;;16.37;10.53;;;;;;;;;;4354256;32;418606;-84
2023/03/08 11:11:03;;;;;;;15.07;11.23;;;;;;;;;;4370917;32;319722;-83
2023/03/08 11:13:32;;;;;;;13.30;5.60;;;;;;;;;;4382099;32;319007;-83
2023/03/08 11:16:17;;;;;;;10.07;6.27;;;;;;;;;;4369501;32;317691;-82
2023/03/08 11:19:00;;;;;;;15.63;6.90;;;;;;;;;;4381311;32;318612;-82
2023/03/08 11:21:36;;;;;;;10.57;5.57;;;;;;;;;;4372575;32;419426;-84
2023/03/08 11:24:18;;;;;;;10.20;5.23;;;;;;;;;;4373044;32;318345;-82
2023/03/08 11:26:53;;;;;;;5.60;3.30;;;;;;;;;;4391648;32;318020;-84
2023/03/08 11:29:38;;;;;;;10.67;5.63;;;;;;;;;;4378706;32;417644;-83
2023/03/08 11:32:15;;;;;;;13.03;4.90;;;;;;;;;;4378579;32;317987;-85
2023/03/08 11:35:08;;;;;;;8.03;4.20;;;;;;;;;;4396336;32;317807;-84
2023/03/08 11:37:41;;;;;;;13.17;5.07;;;;;;;;;;4372219;32;417788;-85
2023/03/08 11:40:22;;;;;;;8.70;4.87;;;;;;;;;;4370055;32;317478;-83
2023/03/08 11:42:59;;;;;;;14.47;4.43;;;;;;;;;;4372339;32;317267;-84
2023/03/08 11:45:31;;;;;;;22.67;12.07;;;;;;;;;;4381466;32;318201;-84
2023/03/08 11:48:18;;;;;;;23.20;12.07;;;;;;;;;;4372009;32;318732;-90
2023/03/08 11:50:51;;;;;;;12.60;8.73;;;;;;;;;;4381487;32;319423;-87
2023/03/08 11:53:24;;;;;;;8.23;6.07;;;;;;;;;;4383632;32;417462;-91
2023/03/08 11:56:25;;;;;;;10.03;5.90;;;;;;;;;;4385269;32;317079;-91
2023/03/08 11:58:57;;;;;;;9.27;5.93;;;;;;;;;;4387598;32;318006;-88
2023/03/08 12:01:27;;;;;;;11.77;7.03;;;;;;;;;;4396461;32;317178;-90
2023/03/08 12:03:57;;;;;;;9.57;6.67;;;;;;;;;;4390542;32;317478;-90
2023/03/08 12:06:27;;;;;;;13.53;7.00;;;;;;;;;;4411843;32;317295;-84
2023/03/08 12:08:59;;;;;;;9.60;5.70;;;;;;;;;;4396074;32;318245;-87
2023/03/08 12:11:31;;;;;;;17.10;7.23;;;;;;;;;;4396028;32;317197;-89
2023/03/08 12:14:06;;;;;;;11.97;6.40;;;;;;;;;;4387259;32;318123;-84
2023/03/08 12:16:39;;;;;;;11.80;6.93;;;;;;;;;;4396264;32;318258;-85
2023/03/08 12:19:15;;;;;;;9.17;4.40;;;;;;;;;;4385876;32;318273;-84
2023/03/08 12:21:48;;;;;;;7.77;5.30;;;;;;;;;;4397207;32;316629;-85
2023/03/08 12:24:39;;;;;;;10.10;6.23;;;;;;;;;;4382760;32;416432;-85
2023/03/08 12:27:12;;;;;;;9.77;5.63;;;;;;;;;;4386570;32;318341;-84
2023/03/08 12:29:46;;;;;;;35.17;7.77;;;;;;;;;;4398144;32;316503;-85
2023/03/08 12:32:14;;;;;;;7.13;4.67;;;;;;;;;;4374184;32;418374;-85
2023/03/08 12:34:43;;;;;;;7.53;4.83;;;;;;;;;;4384643;32;316466;-84
2023/03/08 12:37:23;;;;;;;12.33;5.33;;;;;;;;;;4373944;32;317303;-84
2023/03/08 12:39:59;;;;;;;9.30;5.23;;;;;;;;;;4374695;32;318311;-85
2023/03/08 12:42:33;;;;;;;9.20;4.43;;;;;;;;;;4386267;32;317384;-85
2023/03/08 12:45:29;;;;;;;8.23;4.57;;;;;;;;;;4373504;32;317244;-86
2023/03/08 12:48:10;;;;;;;7.13;3.93;;;;;;;;;;4374783;32;317251;-84
2023/03/08 12:50:53;;;;;;;8.37;5.17;;;;;;;;;;4381172;32;316603;-86
2023/03/08 12:53:29;;;;;;;6.27;4.40;;;;;;;;;;4386944;32;416700;-85
2023/03/08 12:56:05;;;;;;;7.20;3.83;;;;;;;;;;4388855;32;317334;-84
2023/03/08 12:58:36;;;;;;;8.53;3.20;;;;;;;;;;4398458;32;317111;-84
2023/03/08 13:01:05;;;;;;;13.33;3.70;;;;;;;;;;4388573;32;317532;-84
2023/03/08 13:03:38;;;;;;;4.53;2.90;;;;;;;;;;4401890;32;318170;-85
2023/03/08 13:06:51;;;;;;;8.37;4.30;;;;;;;;;;4401635;32;316775;-87
2023/03/08 13:09:22;;;;;;;6.97;3.83;;;;;;;;;;4398434;32;416315;-85
2023/03/08 13:11:56;;;;;;;5.67;3.63;;;;;;;;;;4389565;32;316781;-84
2023/03/08 13:14:27;;;;;;;5.15;3.00;;;;;;;;;;4398457;32;315762;-85
2023/03/08 13:16:55;;;;;;;5.43;3.40;;;;;;;;;;4388577;32;317494;-84
2023/03/08 13:19:26;;;;;;;3.60;2.53;;;;;;;;;;4397364;32;317323;-85
2023/03/08 13:22:03;;;;;;;5.07;3.73;;;;;;;;;;4389787;32;317395;-86
2023/03/08 13:24:42;;;;;;;3.97;2.80;;;;;;;;;;4399896;32;317098;-86
2023/03/08 13:27:20;;;;;;;7.93;4.00;;;;;;;;;;4389472;32;317318;-87
2023/03/08 13:29:48;;;;;;;11.80;5.37;;;;;;;;;;4385434;32;316589;-86
2023/03/08 13:32:19;;;;;;;10.17;4.63;;;;;;;;;;4393988;32;317680;-85
2023/03/08 13:34:57;;;;;;;9.17;4.37;;;;;;;;;;4401579;32;318531;-84
2023/03/08 13:37:26;;;;;;;15.73;7.47;;;;;;;;;;4398191;32;316685;-85
2023/03/08 13:39:54;;;;;;;10.07;6.43;;;;;;;;;;4388823;32;318702;-85
2023/03/08 13:42:23;;;;;;;12.37;6.33;;;;;;;;;;4397690;32;318209;-86
2023/03/08 13:44:52;;;;;;;7.37;3.20;;;;;;;;;;4389162;32;318405;-84
2023/03/08 13:47:25;;;;;;;5.20;3.53;;;;;;;;;;4397328;32;316600;-85
2023/03/08 13:49:54;;;;;;;11.37;3.00;;;;;;;;;;4390775;32;317105;-84
2023/03/08 13:52:23;;;;;;;4.50;2.50;;;;;;;;;;4396698;32;317955;-85
2023/03/08 13:54:53;;;;;;;4.50;2.37;;;;;;;;;;4389025;32;317152;-84
2023/03/08 13:57:23;;;;;;;3.53;2.00;;;;;;;;;;4398694;32;317706;-85
2023/03/08 13:59:53;;;;;;;3.60;2.00;;;;;;;;;;4388068;32;317938;-85
2023/03/08 14:02:22;;;;;;;11.23;3.50;;;;;;;;;;4402230;32;316618;-88
2023/03/08 14:04:49;;;;;;;5.03;3.90;;;;;;;;;;4399672;32;318735;-85
2023/03/08 14:07:21;;;;;;;4.70;3.03;;;;;;;;;;4404864;32;316685;-85
2023/03/08 14:09:48;;;;;;;6.67;3.20;;;;;;;;;;4380405;32;317177;-83
2023/03/08 14:12:18;;;;;;;4.93;3.40;;;;;;;;;;4407995;32;317535;-84
2023/03/08 14:14:48;;;;;;;9.97;2.23;;;;;;;;;;4398571;32;317536;-84
2023/03/08 14:17:22;;;;;;;11.60;2.63;;;;;;;;;;4385323;32;417770;-85
2023/03/08 14:19:53;;;;;;;6.23;2.17;;;;;;;;;;4386180;32;382162;-84
2023/03/08 14:22:21;;;;;;;5.50;3.60;;;;;;;;;;4398278;32;317071;-84
2023/03/08 14:24:54;;;;;;;7.00;3.93;;;;;;;;;;4382585;32;317165;-85
2023/03/08 14:27:39;;;;;;;5.17;3.80;;;;;;;;;;4401242;32;317316;-86